Forside
METAR-TAF:

METAR-TAF

Lufthavne :

Isedor Iverson Airport

McGregor, Minnesota, USA

Breddekreds: 46-37-07N, længdekreds: 093-18-35W, højde: 374 m

Aktuelle vejr

Denne rapport blev lavet for 20 timer og 34 minutter siden, kl. 17:02 UTC
Vind 5 kt fra nord
Temperatur 7°C
Fugtighed 45%
Tryk 1025 hPa
Sigt: 16.1 km
Overskyet i en højde af 6000 ft

METAR: KHZX 101702Z AUTO 01005KT 10SM OVC060 07/M04 A3027 RMK AO1

Tid: 08:36 (13:36 UTC)


TAF: fraværende

Vejrobservationer og prognoser fra mere end 4000 lufthavne (METAR og TAF).

De gule og røde prikker repræsenterer de meteorologiske stationer.

Flyt musen over at se navnet på stationen.

Så klik over at se vejr observationer og prognoser.

At skifte det kort: Klik på de grønne knapper med et sort kors for at zoome ind; på den grønne knap med en bindestreg for at zoome ud; eller på de grønne pile for tilstødende kort.


METAR-TAF: